createdAt,value
2017-12-11T00:00:45.391Z,11.63
2017-12-11T00:03:12.771Z,7.47
2017-12-11T00:05:40.155Z,10.63
2017-12-11T00:08:07.573Z,13.57
2017-12-11T00:10:34.947Z,10.13
2017-12-11T00:13:02.350Z,12.93
2017-12-11T00:15:29.743Z,11.77
2017-12-11T00:17:57.137Z,16.30
2017-12-11T00:20:24.526Z,15.70
2017-12-11T00:22:51.919Z,11.67
2017-12-11T00:25:19.301Z,18.40
2017-12-11T00:27:46.692Z,14.90
2017-12-11T00:30:14.079Z,13.40
2017-12-11T00:32:41.470Z,14.27
2017-12-11T00:35:08.860Z,12.20
2017-12-11T00:40:10.072Z,21.20
2017-12-11T00:42:37.454Z,12.53
2017-12-11T00:45:04.846Z,13.50
2017-12-11T00:47:32.235Z,14.77
2017-12-11T00:49:59.623Z,14.50
2017-12-11T00:52:27.040Z,13.90
2017-12-11T00:54:54.427Z,10.90
2017-12-11T00:57:21.833Z,9.10
2017-12-11T00:59:49.218Z,12.90
2017-12-11T01:02:16.606Z,13.67
2017-12-11T01:04:43.998Z,11.03
2017-12-11T01:07:11.378Z,14.47
2017-12-11T01:09:38.779Z,11.27
2017-12-11T01:12:06.170Z,16.23
2017-12-11T01:14:33.588Z,12.60
2017-12-11T01:17:01.045Z,16.60
2017-12-11T01:19:28.636Z,15.80
2017-12-11T01:21:56.027Z,14.80
2017-12-11T01:24:23.427Z,15.57
2017-12-11T01:26:50.889Z,16.70
2017-12-11T01:29:18.300Z,17.43
2017-12-11T01:31:45.691Z,17.50
2017-12-11T01:34:13.077Z,19.97
2017-12-11T01:36:40.483Z,19.77
2017-12-11T01:39:07.870Z,22.77
2017-12-11T01:41:35.263Z,22.60
2017-12-11T01:44:02.664Z,22.40
2017-12-11T01:46:30.055Z,21.20
2017-12-11T01:48:57.455Z,21.77
2017-12-11T01:51:24.848Z,25.60
2017-12-11T01:53:52.252Z,30.23
2017-12-11T01:56:19.741Z,31.30
2017-12-11T01:58:47.178Z,28.83
2017-12-11T02:01:14.570Z,25.53
2017-12-11T02:03:41.971Z,30.63
2017-12-11T02:06:09.359Z,25.43
2017-12-11T02:08:36.755Z,33.10
2017-12-11T02:11:04.165Z,31.30
2017-12-11T02:13:31.550Z,28.97
2017-12-11T02:15:58.959Z,28.03
2017-12-11T02:18:26.342Z,32.17
2017-12-11T02:20:53.740Z,30.67
2017-12-11T02:23:21.225Z,33.60
2017-12-11T02:25:48.623Z,31.43
2017-12-11T02:28:16.009Z,27.77
2017-12-11T02:30:43.414Z,31.87
2017-12-11T02:33:10.795Z,22.50
2017-12-11T02:35:38.196Z,33.43
2017-12-11T02:38:05.584Z,28.70
2017-12-11T02:40:32.975Z,29.77
2017-12-11T02:43:00.362Z,27.73
2017-12-11T02:45:27.820Z,40.17
2017-12-11T02:47:55.159Z,41.40
2017-12-11T02:50:22.604Z,52.20
2017-12-11T02:52:49.986Z,52.30
2017-12-11T02:55:17.387Z,53.87
2017-12-11T02:57:44.784Z,41.70
2017-12-11T03:00:12.177Z,25.83
2017-12-11T03:02:39.564Z,41.53
2017-12-11T03:05:06.969Z,39.67
2017-12-11T03:07:34.346Z,33.60
2017-12-11T03:10:01.748Z,37.63
2017-12-11T03:12:29.231Z,37.40
2017-12-11T03:14:56.621Z,36.73
2017-12-11T03:17:24.006Z,34.37
2017-12-11T03:19:51.404Z,30.93
2017-12-11T03:22:18.799Z,37.93
2017-12-11T03:24:46.178Z,30.93
2017-12-11T03:27:13.572Z,32.53
2017-12-11T03:29:40.959Z,30.57
2017-12-11T03:32:08.357Z,33.53
2017-12-11T03:34:35.743Z,29.93
2017-12-11T03:37:03.140Z,24.80
2017-12-11T03:39:30.518Z,31.30
2017-12-11T03:41:57.907Z,29.17
2017-12-11T03:44:25.307Z,31.37
2017-12-11T03:46:52.704Z,27.37
2017-12-11T03:49:20.082Z,34.17
2017-12-11T03:51:47.479Z,38.80
2017-12-11T03:54:14.874Z,38.70
2017-12-11T03:56:42.342Z,35.40
2017-12-11T03:59:09.734Z,35.40
2017-12-11T04:01:37.136Z,30.70
2017-12-11T04:04:04.520Z,30.07
2017-12-11T04:06:31.919Z,29.77
2017-12-11T04:08:59.415Z,28.07
2017-12-11T04:11:26.798Z,21.17
2017-12-11T04:13:54.195Z,20.20
2017-12-11T04:16:21.586Z,28.27
2017-12-11T04:18:48.990Z,25.23
2017-12-11T04:21:16.378Z,30.20
2017-12-11T04:23:43.777Z,21.10
2017-12-11T04:26:11.158Z,27.70
2017-12-11T04:28:38.554Z,28.03
2017-12-11T04:31:05.947Z,19.17
2017-12-11T04:33:33.334Z,25.53
2017-12-11T04:36:00.743Z,31.40
2017-12-11T04:38:28.142Z,27.40
2017-12-11T04:40:55.522Z,29.20
2017-12-11T04:43:22.919Z,27.27
2017-12-11T04:45:50.351Z,25.57
2017-12-11T04:48:17.731Z,22.03
2017-12-11T04:50:45.123Z,27.77
2017-12-11T04:53:12.526Z,26.47
2017-12-11T04:55:39.918Z,23.37
2017-12-11T04:58:07.310Z,20.37
2017-12-11T05:00:34.703Z,23.90
2017-12-11T05:03:02.099Z,24.13
2017-12-11T05:05:29.483Z,19.37
2017-12-11T05:07:56.875Z,20.00
2017-12-11T05:10:24.257Z,21.47
2017-12-11T05:12:51.655Z,22.27
2017-12-11T05:15:19.034Z,26.70
2017-12-11T05:17:46.435Z,25.30
2017-12-11T05:20:13.928Z,23.10
2017-12-11T05:22:41.342Z,25.37
2017-12-11T05:25:08.727Z,26.43
2017-12-11T05:27:36.115Z,25.67
2017-12-11T05:30:03.902Z,25.20
2017-12-11T05:32:31.294Z,24.93
2017-12-11T05:34:58.734Z,27.57
2017-12-11T05:37:26.071Z,26.97
2017-12-11T05:39:53.491Z,25.10
2017-12-11T05:42:20.874Z,28.40
2017-12-11T05:44:48.270Z,26.20
2017-12-11T05:47:15.667Z,27.60
2017-12-11T05:49:43.098Z,30.97
2017-12-11T05:52:10.483Z,27.50
2017-12-11T05:54:37.880Z,26.67
2017-12-11T05:57:05.262Z,26.07
2017-12-11T05:59:32.658Z,27.70
2017-12-11T06:02:00.043Z,27.13
2017-12-11T06:04:27.438Z,27.97
2017-12-11T06:06:54.832Z,28.77
2017-12-11T06:09:22.390Z,26.30
2017-12-11T06:11:49.806Z,25.53
2017-12-11T06:14:17.231Z,24.53
2017-12-11T06:16:44.654Z,24.07
2017-12-11T06:19:12.056Z,26.83
2017-12-11T06:21:39.451Z,21.63
2017-12-11T06:24:06.835Z,23.63
2017-12-11T06:26:34.300Z,22.60
2017-12-11T06:29:01.704Z,23.93
2017-12-11T06:31:29.091Z,22.97
2017-12-11T06:33:56.482Z,26.07
2017-12-11T06:36:23.883Z,24.73
2017-12-11T06:38:51.273Z,20.77
2017-12-11T06:41:18.718Z,24.67
2017-12-11T06:43:46.104Z,24.83
2017-12-11T06:46:13.512Z,22.87
2017-12-11T06:48:40.983Z,22.97
2017-12-11T06:51:08.379Z,25.87
2017-12-11T06:53:35.771Z,24.73
2017-12-11T06:56:03.167Z,26.30
2017-12-11T06:58:30.561Z,24.27
2017-12-11T07:00:57.967Z,23.67
2017-12-11T07:03:25.459Z,25.00
2017-12-11T07:05:52.850Z,24.07
2017-12-11T07:08:20.236Z,23.03
2017-12-11T07:10:47.633Z,26.13
2017-12-11T07:13:15.023Z,27.67
2017-12-11T07:15:42.419Z,26.83
2017-12-11T07:18:09.886Z,20.97
2017-12-11T07:20:37.290Z,24.47
2017-12-11T07:23:04.673Z,22.00
2017-12-11T07:25:32.068Z,21.93
2017-12-11T07:27:59.458Z,27.27
2017-12-11T07:30:26.855Z,19.90
2017-12-11T07:32:54.251Z,22.27
2017-12-11T07:35:21.638Z,26.70
2017-12-11T07:37:49.038Z,21.00
2017-12-11T07:40:16.415Z,22.03
2017-12-11T07:42:43.814Z,24.23
2017-12-11T07:45:11.853Z,22.53
2017-12-11T07:47:39.243Z,23.00
2017-12-11T07:50:06.631Z,27.70
2017-12-11T07:52:34.028Z,23.77
2017-12-11T07:55:01.411Z,24.07
2017-12-11T07:57:28.800Z,21.10
2017-12-11T07:59:56.183Z,22.40
2017-12-11T08:02:23.583Z,22.70
2017-12-11T08:04:50.976Z,23.13
2017-12-11T08:07:18.367Z,18.50
2017-12-11T08:09:45.767Z,18.70
2017-12-11T08:12:13.159Z,18.93
2017-12-11T08:14:40.559Z,28.20
2017-12-11T08:17:07.947Z,19.47
2017-12-11T08:19:35.351Z,22.17
2017-12-11T08:22:02.763Z,25.63
2017-12-11T08:24:30.126Z,22.30
2017-12-11T08:26:57.531Z,20.50
2017-12-11T08:29:24.935Z,20.20
2017-12-11T08:31:52.335Z,20.37
2017-12-11T08:34:19.731Z,20.50
2017-12-11T08:36:47.127Z,24.33
2017-12-11T08:39:14.520Z,22.77
2017-12-11T08:41:41.909Z,19.93
2017-12-11T08:44:09.299Z,25.93
2017-12-11T08:46:36.698Z,25.87
2017-12-11T08:49:04.078Z,23.93
2017-12-11T08:51:31.467Z,23.10
2017-12-11T08:53:58.862Z,24.53
2017-12-11T08:56:26.256Z,25.67
2017-12-11T08:58:53.747Z,25.87
2017-12-11T09:01:21.146Z,24.50
2017-12-11T09:03:48.577Z,25.90
2017-12-11T09:06:15.967Z,33.10
2017-12-11T09:08:43.363Z,34.10
2017-12-11T09:11:10.775Z,27.63
2017-12-11T09:13:38.159Z,26.87
2017-12-11T09:16:05.638Z,28.47
2017-12-11T09:18:33.092Z,36.67
2017-12-11T09:21:00.487Z,29.43
2017-12-11T09:23:27.882Z,29.30
2017-12-11T09:25:55.276Z,28.77
2017-12-11T09:28:22.667Z,30.50
2017-12-11T09:30:50.072Z,29.37
2017-12-11T09:33:17.462Z,24.50
2017-12-11T09:35:44.865Z,30.47
2017-12-11T09:38:12.258Z,33.83
2017-12-11T09:40:39.652Z,30.80
2017-12-11T09:43:07.062Z,28.97
2017-12-11T09:45:34.443Z,24.13
2017-12-11T09:48:01.840Z,30.93
2017-12-11T09:50:29.298Z,25.23
2017-12-11T09:52:57.511Z,28.17
2017-12-11T09:55:24.901Z,24.00
2017-12-11T09:57:52.296Z,27.57
2017-12-11T10:00:19.678Z,24.90
2017-12-11T10:02:47.078Z,25.77
2017-12-11T10:05:14.466Z,25.17
2017-12-11T10:07:41.858Z,22.80
2017-12-11T10:10:09.242Z,23.53
2017-12-11T10:12:36.643Z,27.80
2017-12-11T10:15:04.036Z,25.40
2017-12-11T10:17:31.427Z,25.20
2017-12-11T10:19:58.819Z,29.07
2017-12-11T10:22:26.970Z,22.03
2017-12-11T10:24:54.358Z,27.23
2017-12-11T10:27:21.764Z,25.30
2017-12-11T10:29:49.154Z,25.43
2017-12-11T10:32:17.456Z,26.50
2017-12-11T10:34:44.859Z,20.10
2017-12-11T10:37:12.251Z,22.30
2017-12-11T10:39:39.655Z,26.87
2017-12-11T10:42:07.047Z,24.10
2017-12-11T10:44:34.435Z,38.23
2017-12-11T10:47:01.819Z,26.17
2017-12-11T10:49:29.242Z,27.93
2017-12-11T10:51:56.664Z,28.20
2017-12-11T10:54:24.059Z,25.40
2017-12-11T10:56:51.455Z,23.13
2017-12-11T10:59:18.857Z,26.90
2017-12-11T11:01:46.322Z,27.50
2017-12-11T11:04:13.776Z,26.60
2017-12-11T11:06:41.225Z,28.10
2017-12-11T11:09:08.567Z,27.83
2017-12-11T11:11:35.951Z,24.90
2017-12-11T11:14:03.347Z,29.17
2017-12-11T11:16:30.731Z,27.60
2017-12-11T11:18:58.127Z,33.53
2017-12-11T11:21:25.510Z,27.90
2017-12-11T11:23:52.919Z,32.27
2017-12-11T11:26:20.319Z,30.13
2017-12-11T11:28:47.730Z,30.80
2017-12-11T11:31:15.135Z,27.83
2017-12-11T11:33:42.527Z,28.83
2017-12-11T11:36:09.927Z,38.57
2017-12-11T11:38:37.322Z,35.00
2017-12-11T11:41:04.725Z,37.63
2017-12-11T11:43:32.780Z,25.83
2017-12-11T11:46:00.203Z,27.13
2017-12-11T11:48:27.571Z,26.50
2017-12-11T11:50:54.970Z,31.13
2017-12-11T11:53:22.366Z,28.43
2017-12-11T11:55:49.762Z,29.63
2017-12-11T11:58:17.250Z,35.20
2017-12-11T12:00:44.707Z,32.03
2017-12-11T12:03:12.102Z,27.13
2017-12-11T12:05:39.500Z,28.17
2017-12-11T12:08:06.883Z,27.23
2017-12-11T12:10:34.279Z,25.17
2017-12-11T12:13:01.670Z,28.43
2017-12-11T12:15:29.058Z,30.73
2017-12-11T12:17:56.438Z,30.20
2017-12-11T12:20:23.842Z,24.67
2017-12-11T12:22:51.230Z,34.13
2017-12-11T12:25:18.658Z,28.80
2017-12-11T12:27:46.051Z,27.70
2017-12-11T12:30:13.490Z,32.07
2017-12-11T12:32:40.882Z,32.53
2017-12-11T12:35:08.927Z,32.90
2017-12-11T12:37:36.327Z,29.83
2017-12-11T12:40:03.819Z,28.30
2017-12-11T12:42:31.209Z,31.70
2017-12-11T12:44:58.594Z,40.10
2017-12-11T12:47:25.991Z,27.60
2017-12-11T12:49:53.379Z,26.30
2017-12-11T12:52:20.777Z,29.30
2017-12-11T12:54:48.175Z,25.33
2017-12-11T12:57:15.602Z,31.30
2017-12-11T12:59:42.988Z,31.00
2017-12-11T13:02:10.388Z,33.70
2017-12-11T13:04:38.815Z,30.70
2017-12-11T13:07:06.211Z,29.50
2017-12-11T13:09:33.602Z,32.90
2017-12-11T13:12:00.991Z,29.53
2017-12-11T13:14:28.392Z,31.37
2017-12-11T13:16:55.780Z,30.23
2017-12-11T13:19:23.180Z,31.10
2017-12-11T13:21:50.562Z,36.60
2017-12-11T13:24:17.955Z,38.77
2017-12-11T13:26:45.343Z,32.73
2017-12-11T13:29:12.746Z,30.30
2017-12-11T13:31:40.331Z,29.57
2017-12-11T13:34:07.728Z,30.53
2017-12-11T13:36:35.120Z,28.27
2017-12-11T13:39:02.512Z,29.83
2017-12-11T13:41:29.903Z,26.90
2017-12-11T13:43:57.324Z,30.27
2017-12-11T13:46:24.720Z,26.90
2017-12-11T13:48:52.116Z,24.50
2017-12-11T13:51:19.507Z,29.20
2017-12-11T13:53:46.907Z,32.07
2017-12-11T13:56:14.295Z,26.77
2017-12-11T13:58:41.686Z,24.90
2017-12-11T14:01:09.106Z,23.37
2017-12-11T14:03:36.499Z,21.73
2017-12-11T14:06:03.895Z,25.77
2017-12-11T14:08:31.286Z,29.17
2017-12-11T14:10:58.674Z,27.50
2017-12-11T14:13:26.066Z,23.10
2017-12-11T14:15:53.472Z,31.93
2017-12-11T14:18:20.866Z,25.53
2017-12-11T14:20:48.257Z,25.70
2017-12-11T14:23:15.647Z,22.20
2017-12-11T14:25:43.069Z,23.47
2017-12-11T14:28:10.652Z,25.50
2017-12-11T14:30:37.999Z,23.23
2017-12-11T14:33:05.386Z,19.50
2017-12-11T14:35:32.778Z,20.27
2017-12-11T14:38:00.162Z,20.43
2017-12-11T14:40:27.554Z,26.13
2017-12-11T14:42:54.959Z,21.47
2017-12-11T14:45:22.373Z,18.40
2017-12-11T14:47:49.769Z,25.00
2017-12-11T14:50:17.159Z,21.97
2017-12-11T14:52:44.546Z,19.97
2017-12-11T14:55:11.939Z,25.30
2017-12-11T14:57:39.343Z,23.20
2017-12-11T15:00:06.738Z,21.47
2017-12-11T15:02:34.128Z,25.33
2017-12-11T15:05:01.523Z,27.73
2017-12-11T15:07:28.907Z,25.53
2017-12-11T15:09:56.299Z,20.80
2017-12-11T15:12:23.683Z,20.70
2017-12-11T15:14:51.074Z,28.00
2017-12-11T15:17:18.558Z,27.33
2017-12-11T15:19:45.945Z,28.87
2017-12-11T15:22:13.339Z,28.60
2017-12-11T15:24:40.727Z,27.27
2017-12-11T15:27:08.119Z,21.77
2017-12-11T15:29:35.507Z,24.53
2017-12-11T15:32:02.903Z,30.17
2017-12-11T15:34:30.291Z,29.63
2017-12-11T15:36:57.687Z,28.73
2017-12-11T15:39:25.076Z,25.50
2017-12-11T15:41:52.474Z,32.50
2017-12-11T15:44:19.863Z,20.77
2017-12-11T15:46:47.271Z,16.60
2017-12-11T15:49:14.662Z,19.80
2017-12-11T15:51:42.051Z,16.30
2017-12-11T15:54:09.439Z,30.77
2017-12-11T15:56:36.832Z,23.67
2017-12-11T15:59:04.219Z,24.90
2017-12-11T16:01:31.615Z,26.90
2017-12-11T16:03:59.019Z,25.70
2017-12-11T16:06:26.415Z,24.47
2017-12-11T16:08:54.750Z,18.30
2017-12-11T16:11:22.174Z,20.53
2017-12-11T16:13:49.556Z,25.70
2017-12-11T16:16:16.949Z,27.17
2017-12-11T16:18:44.391Z,19.90
2017-12-11T16:21:11.782Z,19.60
2017-12-11T16:23:39.172Z,21.23
2017-12-11T16:26:06.580Z,20.90
2017-12-11T16:28:34.043Z,21.67
2017-12-11T16:31:01.468Z,21.87
2017-12-11T16:33:28.871Z,20.33
2017-12-11T16:35:56.258Z,21.87
2017-12-11T16:38:23.647Z,21.07
2017-12-11T16:40:51.034Z,14.50
2017-12-11T16:43:18.435Z,13.97
2017-12-11T16:45:45.878Z,21.33
2017-12-11T16:48:13.271Z,21.80
2017-12-11T16:50:40.729Z,22.23
2017-12-11T16:53:08.067Z,20.73
2017-12-11T16:55:35.451Z,19.43
2017-12-11T16:58:02.852Z,19.80
2017-12-11T17:00:30.239Z,21.23
2017-12-11T17:02:57.639Z,20.27
2017-12-11T17:05:25.022Z,18.23
2017-12-11T17:07:52.414Z,15.63
2017-12-11T17:10:19.807Z,17.17
2017-12-11T17:12:47.203Z,14.93
2017-12-11T17:15:14.593Z,17.03
2017-12-11T17:17:41.983Z,18.20
2017-12-11T17:20:09.368Z,19.50
2017-12-11T17:22:36.763Z,15.30
2017-12-11T17:25:04.154Z,15.57
2017-12-11T17:27:31.559Z,18.73
2017-12-11T17:29:58.942Z,20.00
2017-12-11T17:32:26.342Z,20.93
2017-12-11T17:34:53.728Z,20.23
2017-12-11T17:37:21.124Z,17.03
2017-12-11T17:39:48.658Z,18.70
2017-12-11T17:42:16.076Z,20.83
2017-12-11T17:44:43.458Z,17.43
2017-12-11T17:47:10.869Z,19.17
2017-12-11T17:49:38.281Z,21.53
2017-12-11T17:52:05.658Z,19.87
2017-12-11T17:54:33.072Z,18.73
2017-12-11T17:57:00.471Z,20.30
2017-12-11T17:59:27.874Z,17.50
2017-12-11T18:01:55.268Z,19.00
2017-12-11T18:04:22.659Z,20.90
2017-12-11T18:06:50.049Z,22.43
2017-12-11T18:09:17.450Z,22.83
2017-12-11T18:11:44.833Z,20.03
2017-12-11T18:14:12.230Z,18.83
2017-12-11T18:16:39.622Z,23.30
2017-12-11T18:19:07.043Z,24.00
2017-12-11T18:21:34.433Z,22.77
2017-12-11T18:24:01.828Z,20.83
2017-12-11T18:26:29.219Z,24.17
2017-12-11T18:28:56.614Z,22.30
2017-12-11T18:31:24.011Z,19.83
2017-12-11T18:33:51.406Z,23.57
2017-12-11T18:36:18.800Z,20.07
2017-12-11T18:38:46.211Z,24.50
2017-12-11T18:41:13.599Z,22.50
2017-12-11T18:43:41.032Z,25.17
2017-12-11T18:46:08.419Z,21.07
2017-12-11T18:48:35.818Z,24.97
2017-12-11T18:51:03.194Z,25.97
2017-12-11T18:53:30.582Z,21.13
2017-12-11T18:55:57.985Z,27.43
2017-12-11T18:58:25.376Z,23.70
2017-12-11T19:00:52.776Z,24.73
2017-12-11T19:03:20.204Z,28.47
2017-12-11T19:05:47.598Z,31.27
2017-12-11T19:08:15.012Z,27.70
2017-12-11T19:10:42.406Z,28.47
2017-12-11T19:13:09.794Z,32.43
2017-12-11T19:15:37.190Z,25.30
2017-12-11T19:18:04.579Z,28.17
2017-12-11T19:20:32.090Z,33.60
2017-12-11T19:22:59.484Z,28.47
2017-12-11T19:25:26.900Z,39.20
2017-12-11T19:27:54.287Z,35.87
2017-12-11T19:30:21.673Z,31.30
2017-12-11T19:32:49.063Z,38.20
2017-12-11T19:35:16.452Z,33.60
2017-12-11T19:37:43.838Z,41.30
2017-12-11T19:40:11.230Z,42.53
2017-12-11T19:42:38.618Z,44.73
2017-12-11T19:45:06.006Z,38.60
2017-12-11T19:47:33.403Z,39.53
2017-12-11T19:50:00.796Z,36.77
2017-12-11T19:52:28.216Z,42.73
2017-12-11T19:54:55.603Z,38.83
2017-12-11T19:57:22.995Z,39.53
2017-12-11T19:59:50.395Z,38.83
2017-12-11T20:02:17.787Z,42.20
2017-12-11T20:04:45.178Z,42.10
2017-12-11T20:07:12.576Z,46.17
2017-12-11T20:09:39.962Z,49.90
2017-12-11T20:12:07.375Z,43.60
2017-12-11T20:14:34.768Z,49.33
2017-12-11T20:17:02.167Z,47.37
2017-12-11T20:19:29.559Z,47.27
2017-12-11T20:21:56.963Z,52.70
2017-12-11T20:24:24.370Z,51.10
2017-12-11T20:26:51.830Z,54.23
2017-12-11T20:29:19.228Z,45.20
2017-12-11T20:31:46.963Z,64.87
2017-12-11T20:34:14.370Z,48.47
2017-12-11T20:36:41.859Z,55.70
2017-12-11T20:39:09.255Z,49.97
2017-12-11T20:41:36.645Z,54.70
2017-12-11T20:44:04.048Z,55.50
2017-12-11T20:46:31.442Z,45.80
2017-12-11T20:48:58.941Z,50.93
2017-12-11T20:51:26.373Z,50.27
2017-12-11T20:53:53.771Z,49.17
2017-12-11T20:56:21.152Z,53.73
2017-12-11T20:58:48.548Z,55.23
2017-12-11T21:01:15.931Z,49.88
2017-12-11T21:03:43.330Z,55.20
2017-12-11T21:06:10.822Z,51.10
2017-12-11T21:08:38.215Z,48.87
2017-12-11T21:11:05.603Z,48.00
2017-12-11T21:13:33.007Z,51.33
2017-12-11T21:16:00.405Z,47.40
2017-12-11T21:18:27.811Z,49.77
2017-12-11T21:23:28.998Z,50.67
2017-12-11T21:25:56.488Z,46.87
2017-12-11T21:28:23.897Z,49.67
2017-12-11T21:30:51.331Z,43.23
2017-12-11T21:33:18.726Z,46.30
2017-12-11T21:35:46.208Z,52.00
2017-12-11T21:38:13.591Z,46.50
2017-12-11T21:40:40.987Z,47.43
2017-12-11T21:43:08.377Z,49.10
2017-12-11T21:45:35.773Z,48.37
2017-12-11T21:48:03.159Z,46.17
2017-12-11T21:50:30.546Z,42.67
2017-12-11T21:52:57.948Z,49.63
2017-12-11T21:55:25.344Z,46.27
2017-12-11T21:57:52.731Z,46.00
2017-12-11T22:00:20.126Z,49.50
2017-12-11T22:02:47.536Z,49.43
2017-12-11T22:05:14.927Z,48.50
2017-12-11T22:07:42.315Z,45.83
2017-12-11T22:10:09.711Z,50.27
2017-12-11T22:12:37.106Z,46.80
2017-12-11T22:15:04.507Z,43.37
2017-12-11T22:17:31.920Z,53.10
2017-12-11T22:19:59.316Z,37.90
2017-12-11T22:22:26.711Z,43.10
2017-12-11T22:24:54.113Z,42.70
2017-12-11T22:27:21.539Z,44.30
2017-12-11T22:29:48.939Z,45.13
2017-12-11T22:32:16.347Z,45.43
2017-12-11T22:34:43.735Z,43.70
2017-12-11T22:37:11.122Z,41.60
2017-12-11T22:39:38.528Z,46.03
2017-12-11T22:42:05.918Z,37.20
2017-12-11T22:44:33.327Z,47.40
2017-12-11T22:47:00.734Z,38.90
2017-12-11T22:49:28.154Z,34.20
2017-12-11T22:51:55.567Z,37.87
2017-12-11T22:54:22.938Z,39.77
2017-12-11T22:56:50.330Z,37.50
2017-12-11T22:59:17.731Z,40.00
2017-12-11T23:01:45.134Z,34.30
2017-12-11T23:04:12.525Z,42.07
2017-12-11T23:06:39.925Z,40.77
2017-12-11T23:09:07.321Z,44.23
2017-12-11T23:11:34.723Z,39.57
2017-12-11T23:14:02.116Z,38.63
2017-12-11T23:16:29.518Z,42.60
2017-12-11T23:18:56.926Z,41.70
2017-12-11T23:21:24.306Z,40.80
2017-12-11T23:23:51.714Z,39.03
2017-12-11T23:26:19.094Z,42.87
2017-12-11T23:28:46.491Z,41.07
2017-12-11T23:31:13.888Z,37.93
2017-12-11T23:33:41.282Z,39.73
2017-12-11T23:36:08.670Z,41.37
2017-12-11T23:38:36.156Z,40.00
2017-12-11T23:41:03.540Z,42.57
2017-12-11T23:43:30.932Z,39.47
2017-12-11T23:45:58.327Z,32.10
2017-12-11T23:48:26.418Z,36.80
2017-12-11T23:50:53.807Z,35.07
2017-12-11T23:53:21.214Z,29.43
2017-12-11T23:55:48.598Z,27.13
2017-12-11T23:58:16.003Z,28.13
